Terminal Aerodrome Forecast
Issued by NWS Mt. Holly, NJ

Current Version | Previous Version | Text Only | Print | Product List | Glossary On
Versions: 1 2 3 4 5 6 7 8 9 10 11 12 13 14 15
000
FTUS41 KPHI 271100
TAFACY
TAF
KACY 271129Z 2712/2812 18004KT P6SM SCT250
     FM271800 15007KT P6SM SCT250
     FM280400 VRB03KT P6SM BKN050
     FM280900 32008KT P6SM SCT050=

USA.gov is the U.S. government's official web portal to all federal, state and local government web resources and services.